Latest Weather Observations for Albion Park

IDN60801

Issued at 11:02 am EST Friday 4 September 2015 (issued every 30 minutes, with the page automatically refreshed every 10 minutes)

About weather observations | Map of weather stations | Latest weather observations for NSW | Other Formats
Station Details ID: 068241 Name: WOLLONGONG AIRPORT Lat: -34.56 Lon: 150.79 Height: 8.0 m
Data from the previous 72 hours. | See also: Recent months at Albion Park
Date/Time
EST
Temp
°C
App
Temp
°C
Dew
Point
Rel
Hum
%
Delta-T
°C
Wind Press
QNH
hPa
Press
MSL
hPa
Rain
since 9 am
mm
Dir
 
Spd
km/h
Gust
km/h
Spd
kts
Gust
kts
04/11:00am 17.1 13.4 10.2 64 3.6 S 20 30 11 16 1022.6 1022.6 0.0
04/10:30am 16.4 11.6 10.3 67 3.2 S 26 39 14 21 1022.3 1022.3 0.0
04/10:00am 15.6 10.5 9.3 66 3.2 SSW 26 35 14 19 1022.3 1022.3 0.0
04/09:30am 15.3 10.7 9.7 69 2.9 SSW 24 39 13 21 1022.4 1022.4 0.0
04/09:00am 15.1 10.6 10.1 72 2.6 SSW 24 37 13 20 1022.3 1022.3 1.2
04/08:30am 14.8 10.1 9.4 70 2.8 SSW 24 35 13 19 1021.9 1021.9 1.2
04/08:00am 14.8 11.1 10.0 73 2.5 SSW 20 39 11 21 1021.6 1021.6 1.2
04/07:30am 14.2 9.9 9.4 73 2.5 SSW 22 32 12 17 1021.4 1021.4 1.2
04/07:00am 14.0 10.8 9.8 76 2.2 SSW 17 33 9 18 1021.0 1021.0 1.2
04/06:30am 14.1 10.6 10.1 77 2.1 SSW 19 28 10 15 1020.3 1020.3 1.2
04/06:00am 14.1 10.5 9.7 75 2.3 SSW 19 24 10 13 1019.7 1019.7 1.2
04/05:47am 14.2 8.9 9.8 75 2.3 SSW 28 46 15 25 1019.5 1019.5 1.2
04/05:30am 14.2 8.9 9.8 75 2.3 SSW 28 41 15 22 1019.2 1019.2 1.2
04/05:00am 14.0 8.7 10.0 77 2.1 SSW 28 50 15 27 1018.9 1018.9 1.2
04/04:42am 13.9 8.8 10.5 80 1.8 SSW 28 46 15 25 1018.8 1018.8 1.2
04/04:30am 13.9 9.2 10.5 80 1.8 SSW 26 39 14 21 1018.6 1018.6 1.2
04/04:24am 13.9 9.5 10.5 80 1.8 SSW 24 37 13 20 1018.5 1018.5 1.2
04/04:03am 13.8 9.8 10.6 81 1.7 SSW 22 39 12 21 1018.3 1018.3 1.2
04/04:00am 13.9 10.0 10.7 81 1.7 SSW 22 32 12 17 1018.2 1018.2 1.2
04/03:40am 13.8 8.1 11.0 83 1.5 SSW 32 50 17 27 1018.2 1018.2 1.2
04/03:30am 13.6 7.8 10.8 83 1.5 SSW 32 44 17 24 1017.9 1017.9 1.2
04/03:00am 13.8 8.1 11.0 83 1.5 SSW 32 54 17 29 1017.5 1017.5 1.2
04/02:56am 13.6 8.6 11.1 85 1.3 SSW 28 54 15 29 1017.5 1017.5 1.2
04/02:30am 13.9 9.5 11.6 86 1.2 SSW 26 37 14 20 1017.2 1017.2 0.8
04/02:00am 14.3 9.5 11.5 83 1.5 SSW 28 44 15 24 1017.4 1017.4 0.4
04/01:32am 14.4 9.0 11.0 80 1.8 SSW 30 48 16 26 1016.8 1016.8 0.4
04/01:30am 14.2 8.5 11.2 82 1.6 SSW 32 48 17 26 1016.8 1016.8 0.4
04/01:17am 14.3 8.6 11.3 82 1.6 SSW 32 56 17 30 1016.7 1016.7 0.4
04/01:00am 14.6 9.8 10.4 76 2.2 SSW 26 43 14 23 1016.6 1016.6 0.4
04/12:30am 14.8 8.0 10.8 77 2.1 SSW 37 56 20 30 1016.2 1016.2 0.4
04/12:16am 14.8 9.5 11.2 79 1.9 SSW 30 50 16 27 1015.9 1015.9 0.4
04/12:00am 14.9 8.9 10.9 77 2.1 SSW 33 46 18 25 1015.7 1015.7 0.4
 
Date/Time
EST
Temp
°C
App
Temp
°C
Dew
Point
Rel
Hum
%
Delta-T
°C
Wind Press
QNH
hPa
Press
MSL
hPa
Rain
since 9 am
mm
Dir
 
Spd
km/h
Gust
km/h
Spd
kts
Gust
kts
03/11:33pm 15.0 9.3 11.2 78 2.0 SSW 32 52 17 28 1015.2 1015.2 0.4
03/11:30pm 14.9 9.6 11.1 78 2.0 SW 30 43 16 23 1015.1 1015.1 0.4
03/11:00pm 15.0 10.3 10.6 75 2.3 SSW 26 37 14 20 1014.7 1014.7 0.4
03/10:30pm 14.8 10.0 10.2 74 2.4 SSW 26 41 14 22 1014.6 1014.6 0.4
03/10:00pm 14.6 9.6 10.8 78 2.0 SSW 28 46 15 25 1014.5 1014.5 0.4
03/09:32pm 15.4 8.6 9.3 67 3.1 SSW 35 54 19 29 1013.9 1013.9 0.2
03/09:30pm 15.5 8.4 9.4 67 3.1 SSW 37 54 20 29 1013.8 1013.8 0.2
03/09:00pm 15.0 8.8 10.0 72 2.6 SW 33 54 18 29 1013.2 1013.2 0.2
03/08:30pm 14.8 9.1 9.8 72 2.6 SSW 30 50 16 27 1012.9 1012.9 0.2
03/08:12pm 14.3 8.1 9.5 73 2.5 SW 32 50 17 27 1012.5 1012.5 0.2
03/08:00pm 14.0 7.8 10.0 77 2.1 SSW 33 46 18 25 1012.6 1012.6 0.2
03/07:30pm 14.1 6.6 9.5 74 2.4 SSW 39 57 21 31 1012.0 1012.0 0.0
03/07:08pm 15.1 7.8 8.8 66 3.2 SSW 37 56 20 30 1011.4 1011.4 0.0
03/07:00pm 15.4 7.3 8.6 64 3.5 SSW 41 56 22 30 1011.2 1011.2 0.0
03/06:37pm 15.1 9.8 9.9 71 2.7 SSW 28 50 15 27 1010.8 1010.8 0.0
03/06:30pm 15.3 10.8 9.9 70 2.8 SW 24 35 13 19 1010.7 1010.7 0.0
03/06:00pm 14.4 10.2 9.8 74 2.4 WSW 22 35 12 19 1010.0 1010.0 0.0
03/05:30pm 14.2 10.5 10.0 76 2.2 WSW 20 32 11 17 1009.4 1009.4 0.0
03/05:00pm 14.5 11.3 9.9 74 2.4 W 17 39 9 21 1008.9 1008.9 0.0
03/04:30pm 15.2 10.8 10.4 73 2.5 SSW 24 33 13 18 1008.4 1008.4 0.0
03/04:00pm 16.4 11.5 10.0 66 3.4 SSW 26 35 14 19 1007.4 1007.4 0.0
03/03:30pm 17.8 13.0 7.5 51 5.2 SW 22 33 12 18 1006.9 1006.9 0.0
03/03:00pm 18.3 13.3 8.0 51 5.3 SW 24 37 13 20 1006.4 1006.4 0.0
03/02:30pm 19.0 13.6 7.8 48 5.7 W 26 33 14 18 1005.6 1005.6 0.0
03/02:00pm 19.5 13.4 8.2 48 5.9 W 30 43 16 23 1005.3 1005.3 0.0
03/01:30pm 19.1 12.3 6.9 45 6.1 WSW 32 46 17 25 1005.2 1005.2 0.0
03/01:08pm 18.7 12.4 5.9 43 6.3 SW 28 46 15 25 1005.4 1005.4 0.0
03/01:00pm 19.0 13.3 6.8 45 6.1 WSW 26 39 14 21 1005.3 1005.3 0.0
03/12:30pm 18.4 12.7 6.6 46 5.9 WSW 26 35 14 19 1005.4 1005.4 0.0
03/12:00pm 17.6 11.5 6.8 49 5.4 W 28 44 15 24 1005.5 1005.5 0.0
03/11:30am 17.5 11.4 8.1 54 4.8 WSW 30 43 16 23 1005.4 1005.4 0.0
03/11:00am 18.1 12.6 7.5 50 5.4 WSW 26 44 14 24 1005.3 1005.3 0.0
03/10:30am 18.0 13.8 8.3 53 5.0 WSW 20 30 11 16 1005.5 1005.5 0.0
03/10:00am 18.0 13.6 9.1 56 4.7 W 22 33 12 18 1005.6 1005.6 0.0
03/09:30am 17.7 12.5 8.8 56 4.6 W 26 37 14 20 1005.8 1005.8 0.0
03/09:00am 16.8 14.2 10.6 67 3.3 WSW 15 20 8 11 1005.5 1005.5 2.8
03/08:30am 15.7 12.5 9.8 68 3.1 W 17 22 9 12 1005.4 1005.4 2.8
03/08:00am 14.5 13.6 11.5 82 1.6 WSW 7 11 4 6 1005.4 1005.4 2.8
03/07:30am 12.1 10.8 11.3 95 0.4 WSW 9 11 5 6 1005.2 1005.2 2.8
03/07:00am 10.1 8.0 9.9 99 0.1 WSW 11 15 6 8 1005.0 1005.0 2.8
03/06:30am 8.1 5.9 7.8 98 0.1 W 9 11 5 6 1004.7 1004.7 2.8
03/06:00am 9.2 7.3 8.9 98 0.1 W 9 11 5 6 1004.6 1004.6 2.8
03/05:30am 9.9 7.4 9.8 99 0.1 W 13 15 7 8 1004.6 1004.6 2.8
03/05:00am 10.1 8.0 9.9 99 0.1 WSW 11 13 6 7 1004.8 1004.8 2.8
03/04:30am 10.3 8.7 10.1 99 0.1 WSW 9 13 5 7 1004.9 1004.9 2.8
03/04:00am 10.4 8.4 10.2 99 0.1 WSW 11 13 6 7 1005.2 1005.2 2.8
03/03:30am 10.5 8.9 10.3 99 0.1 WSW 9 11 5 6 1005.7 1005.7 2.8
03/03:00am 11.0 10.5 10.7 98 0.2 SW 4 7 2 4 1005.5 1005.5 2.8
03/02:30am 11.3 10.8 10.8 97 0.3 W 4 7 2 4 1006.9 1006.9 2.6
03/02:00am 11.4 10.5 10.8 96 0.3 S 6 9 3 5 1007.8 1007.8 2.0
03/01:30am 11.5 10.0 10.6 94 0.5 SSW 9 11 5 6 1008.3 1008.3 1.8
03/01:10am 11.9 10.8 10.5 91 0.7 E 7 11 4 6 1009.1 1009.1 1.4
03/01:00am 12.4 10.4 10.1 86 1.2 NW 11 17 6 9 1009.5 1009.5 1.2
03/12:59am 12.5 10.5 10.2 86 1.2 NW 11 20 6 11 1009.6 1009.6 1.2
03/12:30am 12.9 11.2 9.7 81 1.6 W 9 13 5 7 1008.2 1008.2 0.4
03/12:00am 13.9 11.0 9.5 75 2.3 NNW 15 26 8 14 1009.2 1009.2 0.2
 
Date/Time
EST
Temp
°C
App
Temp
°C
Dew
Point
Rel
Hum
%
Delta-T
°C
Wind Press
QNH
hPa
Press
MSL
hPa
Rain
since 9 am
mm
Dir
 
Spd
km/h
Gust
km/h
Spd
kts
Gust
kts
02/11:30pm 10.6 9.2 9.5 93 0.6 W 7 9 4 5 1008.7 1008.7 0.2
02/11:00pm 10.4 10.1 8.7 89 0.8 CALM 0 6 0 3 1008.3 1008.3 0.0
02/10:30pm 10.6 8.9 8.4 86 1.1 W 7 11 4 6 1009.0 1009.0 0.0
02/10:00pm 10.5 8.4 8.4 87 1.0 NW 9 11 5 6 1009.2 1009.2 0.0
02/09:30pm 10.3 8.2 8.1 86 1.1 W 9 11 5 6 1009.7 1009.7 0.0
02/09:00pm 10.3 8.5 8.1 86 1.1 W 7 9 4 5 1010.2 1010.2 0.0
02/08:30pm 10.3 7.8 8.2 87 1.0 W 11 13 6 7 1010.4 1010.4 0.0
02/08:00pm 10.2 8.6 8.8 91 0.7 W 7 9 4 5 1010.8 1010.8 0.0
02/07:30pm 10.6 8.0 9.4 92 0.6 W 13 15 7 8 1011.2 1011.2 0.0
02/07:00pm 11.0 8.8 9.4 90 0.8 W 11 13 6 7 1011.1 1011.1 0.0
02/06:30pm 11.8 10.4 9.5 86 1.2 W 7 11 4 6 1011.2 1011.2 0.0
02/06:00pm 13.2 11.1 9.8 80 1.7 WNW 11 13 6 7 1011.3 1011.3 0.0
02/05:30pm 15.8 14.0 10.8 72 2.7 NE 11 17 6 9 1011.1 1011.1 0.0
02/05:00pm 16.6 14.0 10.7 68 3.1 NE 15 22 8 12 1011.2 1011.2 0.0
02/04:30pm 16.9 13.5 10.5 66 3.4 NE 19 24 10 13 1011.4 1011.4 0.0
02/04:00pm 16.8 12.8 10.6 67 3.3 NE 22 28 12 15 1011.3 1011.3 0.0
02/03:30pm 16.8 12.6 11.1 69 3.1 NE 24 32 13 17 1011.3 1011.3 0.0
02/03:00pm 16.6 12.1 10.2 66 3.4 NE 24 32 13 17 1011.5 1011.5 0.0
02/02:30pm 17.0 12.7 9.4 61 4.0 NE 22 28 12 15 1011.8 1011.8 0.0
02/02:00pm 17.4 12.8 9.8 61 4.0 NE 24 32 13 17 1012.1 1012.1 0.0
02/01:30pm 17.9 13.6 9.5 58 4.4 NE 22 28 12 15 1012.7 1012.7 0.0
02/01:00pm 17.9 13.9 9.0 56 4.6 ENE 20 26 11 14 1013.2 1013.2 0.0
02/12:30pm 18.3 14.7 3.0 36 7.1 N 11 17 6 9 1014.0 1014.0 0.0
02/12:00pm 18.4 13.2 2.3 34 7.3 N 19 28 10 15 1014.7 1014.7 0.0
02/11:30am 18.0 13.9 4.6 41 6.4 NNW 15 20 8 11 1015.3 1015.3 0.0
02/11:00am 17.8 13.6 4.0 40 6.5 NNW 15 20 8 11 1015.9 1015.9 0.0
02/10:30am 17.3 12.7 3.9 41 6.3 N 17 24 9 13 1016.4 1016.4 0.0
02/10:00am 16.2 12.4 1.9 38 6.3 NW 11 19 6 10 1016.7 1016.7 0.0
02/09:30am 14.9 12.5 5.1 52 4.6 NW 7 9 4 5 1017.1 1017.1 0.0
02/09:00am 13.3 11.4 6.6 64 3.2 WSW 6 7 3 4 1017.2 1017.2 0.0
02/08:30am 13.1 11.8 6.0 62 3.4 NNW 2 6 1 3 1017.3 1017.3 0.0
02/08:00am 10.3 8.8 7.0 80 1.6 E 4 7 2 4 1017.3 1017.3 0.0
02/07:30am 6.9 4.8 6.8 99 0.0 S 7 9 4 5 1017.3 1017.3 0.0
02/07:00am 4.2 2.9 4.1 99 0.0 CALM 0 0 0 0 1017.0 1017.0 0.0
02/06:30am 3.5 1.7 3.4 99 0.0 S 2 6 1 3 1017.0 1017.0 0.0
02/06:00am 3.9 2.2 3.8 99 0.0 SSE 2 7 1 4 1016.8 1016.8 0.0
02/05:30am 4.1 2.8 4.0 99 0.0 CALM 0 0 0 0 1016.5 1016.5 0.0
02/05:00am 4.4 3.1 4.3 99 0.0 CALM 0 6 0 3 1016.0 1016.0 0.0
02/04:30am 4.5 2.5 4.4 99 0.0 ENE 4 7 2 4 1016.0 1016.0 0.0
02/04:00am 4.1 2.7 3.8 98 0.1 CALM 0 6 0 3 1016.2 1016.2 0.0
02/03:30am 4.1 2.7 3.8 98 0.1 CALM 0 0 0 0 1016.1 1016.1 0.0
02/03:00am 3.9 2.5 3.5 97 0.2 CALM 0 0 0 0 1016.3 1016.3 0.0
02/02:30am 4.3 1.8 3.7 96 0.2 SSW 6 7 3 4 1016.5 1016.5 0.0
02/02:00am 5.1 3.9 4.7 97 0.2 CALM 0 0 0 0 1016.7 1016.7 0.0
02/01:30am 4.6 3.3 4.2 97 0.2 CALM 0 0 0 0 1016.6 1016.6 0.0
02/01:00am 5.1 3.9 4.7 97 0.2 CALM 0 0 0 0 1016.8 1016.8 0.0
02/12:30am 5.1 3.1 4.4 95 0.3 S 4 7 2 4 1016.8 1016.8 0.0
02/12:00am 5.7 3.5 5.3 97 0.2 WNW 6 9 3 5 1016.7 1016.7 0.0
 
Date/Time
EST
Temp
°C
App
Temp
°C
Dew
Point
Rel
Hum
%
Delta-T
°C
Wind Press
QNH
hPa
Press
MSL
hPa
Rain
since 9 am
mm
Dir
 
Spd
km/h
Gust
km/h
Spd
kts
Gust
kts
01/11:30pm 5.6 4.1 5.0 96 0.3 SSW 2 7 1 4 1016.6 1016.6 0.0
01/11:00pm 5.3 2.3 4.3 93 0.4 W 9 11 5 6 1016.5 1016.5 0.0
01/10:30pm 6.3 5.3 5.7 96 0.3 CALM 0 6 0 3 1016.5 1016.5 0.0
01/10:00pm 5.9 3.4 5.0 94 0.4 WSW 7 9 4 5 1016.3 1016.3 0.0
01/09:30pm 6.6 3.9 5.6 93 0.4 W 9 9 5 5 1016.2 1016.2 0.0
01/09:01pm 7.4 5.8 6.2 92 0.5 W 4 20 2 11 1015.9 1015.9 0.0
01/09:00pm 15.8 14.0 5.4 50 4.9 W 4 20 2 11 1020.0 1020.0 0.0
01/08:30pm 7.7 5.6 6.5 92 0.5 W 7 9 4 5 1015.7 1015.7 0.0
01/08:00pm 8.0 6.1 6.5 90 0.7 W 6 9 3 5 1015.5 1015.5 0.0
01/07:30pm 9.1 6.8 7.5 90 0.8 W 9 11 5 6 1015.3 1015.3 0.0
01/07:00pm 9.2 6.9 7.5 89 0.8 W 9 11 5 6 1015.0 1015.0 0.0
01/06:30pm 10.0 8.1 7.4 84 1.2 W 7 9 4 5 1014.6 1014.6 0.0
01/06:00pm 12.0 10.0 7.1 72 2.4 WSW 7 9 4 5 1014.2 1014.2 0.0
01/05:30pm 14.0 12.0 7.1 63 3.4 NE 7 9 4 5 1013.8 1013.8 0.0
01/05:00pm 15.7 13.4 5.9 52 4.7 NNE 7 9 4 5 1013.5 1013.5 0.0
01/04:30pm 16.2 13.6 6.3 52 4.8 ENE 9 13 5 7 1013.4 1013.4 0.0
01/04:00pm 16.4 13.9 6.5 52 4.8 E 9 15 5 8 1013.3 1013.3 0.0
01/03:30pm 16.3 12.5 5.9 50 5.0 NE 15 19 8 10 1013.3 1013.3 0.0
01/03:00pm 16.7 12.9 5.9 49 5.2 NE 15 19 8 10 1013.3 1013.3 0.0
01/02:30pm 16.9 13.2 6.1 49 5.3 E 15 20 8 11 1013.2 1013.2 0.0
01/02:00pm 17.7 13.5 5.9 46 5.8 NE 17 22 9 12 1013.2 1013.2 0.0
01/01:30pm 17.0 12.5 5.9 48 5.4 NE 19 22 10 12 1013.2 1013.2 0.0
01/01:00pm 16.8 12.5 7.2 53 4.8 NE 19 24 10 13 1013.5 1013.5 0.0
01/12:30pm 17.2 14.1 1.6 35 6.9 S 7 11 4 6 1014.0 1014.0 0.0
01/12:00pm 16.6 13.8 3.0 40 6.2 SE 7 11 4 6 1014.5 1014.5 0.0
01/11:30am 15.8 13.3 4.5 47 5.3 SE 7 13 4 7 1015.0 1015.0 0.0

Other Formats:

Comma delimited format used in spreadsheet applications
http://www.bom.gov.au/fwo/IDN60801/IDN60801.95748.axf

JavaScript Object Notation format (JSON) in row-major order
http://www.bom.gov.au/fwo/IDN60801/IDN60801.95748.json